ESSAEFMA

Guest
Details From ESSA - Stockholm Arlanda
To EFMA - Mariehamn
Flight Number -
Tags generated
Created
Modified
Stats Distance 65 nm / 121 km
Max Altitude 0 ft / 0 m
Waypoints 2
Social Downloads 0
Likes 0
Share VATSIM

Download

Looking for another format? Having issues loading an existing format? Contact us
Advertisement - Login to hide

Notes

Basic altitude profile: - Ascent Rate: 700ft/min - Ascent Speed: 100kts - Cruise Altitude: 10000ft - Cruise Speed: 120kts - Descent Rate: 1000ft/min - Descent Speed: 130kts Options: - Use NATs: no - Use PACOTS: no - Use low airways: no - Use high airways: no

Route

ESSA EFMA

ID Type Via Altitude Latitude Longitude Leg Dist Tot Dist Heading (true) Name
O ESSA APT - 0 ft / 0 m 59.65014˚ 17.94363˚ - 0 nm - Stockholm Arlanda
O EFMA APT - 0 ft / 0 m 60.12220˚ 19.89816˚ 65 nm 65 nm 63° / 65° Mariehamn

Altitude Profile

Advertisement - Login to hide

ESSA

Details ICAO ESSA (ARN)
Name Stockholm Arlanda
Region Sweden
Timezone Europe/Stockholm (UTC+1.0)
Stats Elevation 137 ft / 42 m (AMSL)
Location 59.650140° 17.943628°
Runways 3
Magnetic Variation 6.103° E

METAR

ESSA 182020Z 26006KT 7000 BR OVC004 01/01 Q1020 R01L/29//95 R01R/29//95 R08/29//95 TEMPO BKN005

Decode

TAF

TAF AMD TAF AMD ESSA 181759Z 1818/1918 25010KT 9999 -DZ BKN006 TEMPO 1818/1824 2000 BR BKN004 BECMG 1822/1824 32005KT FEW010

Decode

Departure Runways

ID Width Length Bearing (true) Bearing (mag) Surface Threshold Offset Overrun Length
01L 148 ft / 45 m 10,812 ft / 3,296 m 10.35° 4.25° Concrete 0 ft / 0 m 0 ft / 0 m
01R 148 ft / 45 m 8,188 ft / 2,496 m 10.38° 4.28° Asphalt 0 ft / 0 m 0 ft / 0 m
08 148 ft / 45 m 8,178 ft / 2,493 m 75.83° 69.73° Concrete 0 ft / 0 m 0 ft / 0 m
19L 148 ft / 45 m 8,188 ft / 2,496 m 190.39° 184.29° Asphalt 0 ft / 0 m 0 ft / 0 m
19R 148 ft / 45 m 10,812 ft / 3,296 m 190.36° 184.26° Concrete 0 ft / 0 m 0 ft / 0 m
26 148 ft / 45 m 8,178 ft / 2,493 m 255.87° 249.77° Concrete 0 ft / 0 m 0 ft / 0 m

EFMA

Details ICAO EFMA (MHQ)
Name Mariehamn
Region Finland
Timezone Europe/Mariehamn (UTC+2.0)
Stats Elevation 17 ft / 5 m (AMSL)
Location 60.122203° 19.898157°
Runways 1
Magnetic Variation 6.958° E

METAR

EFMA 182020Z 27005KT 230V310 9999 OVC004 02/01 Q1019

Decode

TAF

Not found

Destination Runways

ID Width Length Bearing (true) Bearing (mag) Surface Threshold Offset Overrun Length
03 197 ft / 60 m 6,231 ft / 1,899 m 23.33° 16.37° Asphalt 0 ft / 0 m 161 ft / 49 m
21 197 ft / 60 m 6,231 ft / 1,899 m 203.35° 196.39° Asphalt 0 ft / 0 m 150 ft / 46 m

Approach Navaids

Runway Type Ident Frequency Range Bearing (true) Bearing (mag) Slope Elevation
21 Localiser MA 110.90 MHz 18 nm / 33 km 203.34° 196.38° - 17 ft / 5 m (AMSL)
21 Glidescope MA 110.90 MHz 10 nm / 19 km 203.34° 196.38° 3.50° 17 ft / 5 m (AMSL)

Popular Alternatives